Time;durP1;ratioP1;P1;durP2;ratioP2;P2;SDS_P1;SDS_P2;PMS_P1;PMS_P2;Temp;Humidity;BMP_temperature;BMP_pressure;BME280_temperature;BME280_humidity;BME280_pressure;Samples;Min_cycle;Max_cycle;Signal;HPM_P1;HPM_P2
2023/10/26 00:02:06;;;;;;;1.83;1.20;;;;;;;-143.84;57.48;45052.88;5090034;28;20440;-57
2023/10/26 00:04:33;;;;;;;2.43;2.23;;;;;;;-143.84;60.52;45047.16;5090170;28;20504;-57
2023/10/26 00:07:00;;;;;;;4.87;1.70;;;;;;;-143.84;61.38;45031.94;5089730;28;20489;-57
2023/10/26 00:09:27;;;;;;;2.33;1.80;;;;;;;-143.84;61.49;45056.69;5090197;28;20448;-57
2023/10/26 00:11:55;;;;;;;2.30;2.10;;;;;;;-143.84;59.45;45045.25;5089702;28;20447;-57
2023/10/26 00:14:23;;;;;;;1.90;1.50;;;;;;;-143.84;59.82;45066.22;5089988;28;20444;-57
2023/10/26 00:16:50;;;;;;;1.33;1.23;;;;;;;-143.84;59.02;45052.88;5089883;28;20488;-57
2023/10/26 00:19:17;;;;;;;1.87;1.67;;;;;;;-143.84;58.59;45047.16;5089653;28;20475;-57
2023/10/26 00:21:44;;;;;;;3.43;1.57;;;;;;;-143.84;57.62;45045.25;5089700;28;20436;-57
2023/10/26 00:24:12;;;;;;;1.03;0.80;;;;;;;-143.84;56.87;45075.72;5089594;28;20494;-57
2023/10/26 00:26:40;;;;;;;1.70;1.40;;;;;;;-143.84;56.72;45052.88;5089854;28;20439;-57
2023/10/26 00:29:07;;;;;;;1.10;1.00;;;;;;;-143.84;55.91;45052.88;5089229;28;20530;-57
2023/10/26 00:31:36;;;;;;;1.13;1.03;;;;;;;-143.84;55.75;45039.53;5089383;28;20497;-57
2023/10/26 00:34:03;;;;;;;2.73;1.30;;;;;;;-143.84;54.88;45050.97;5089122;28;20498;-57
2023/10/26 00:36:30;;;;;;;2.77;1.27;;;;;;;-143.84;54.40;45049.06;5089714;28;20436;-57
2023/10/26 00:38:57;;;;;;;1.53;1.20;;;;;;;-143.84;54.24;45050.97;5089179;28;20540;-57
2023/10/26 00:41:24;;;;;;;2.90;1.50;;;;;;;-143.84;53.82;45060.50;5089155;28;20444;-57
2023/10/26 00:43:51;;;;;;;1.00;0.80;;;;;;;-143.84;52.74;45031.94;5089194;28;20443;-57
2023/10/26 00:46:18;;;;;;;1.23;1.13;;;;;;;-143.84;52.46;45068.13;5089111;28;21206;-57
2023/10/26 00:48:47;;;;;;;0.80;0.50;;;;;;;-143.84;52.18;45039.53;5089283;28;20854;-57
2023/10/26 00:51:15;;;;;;;2.30;0.90;;;;;;;-143.84;51.42;45041.44;5089327;28;20619;-57
2023/10/26 00:53:43;;;;;;;0.90;0.60;;;;;;;-143.84;50.82;45026.22;5089242;28;20497;-57
2023/10/26 00:56:13;;;;;;;0.90;0.70;;;;;;;-143.84;50.79;45060.50;5090314;28;20483;-57
2023/10/26 00:58:41;;;;;;;1.17;0.70;;;;;;;-143.84;50.50;45033.84;5089851;28;20559;-57
2023/10/26 01:01:08;;;;;;;0.97;0.70;;;;;;;-143.84;50.06;45071.91;5089730;28;20432;-57
2023/10/26 01:03:37;;;;;;;0.80;0.50;;;;;;;-143.84;50.50;45062.41;5090343;28;20645;-57
2023/10/26 01:06:07;;;;;;;0.90;0.60;;;;;;;-143.84;49.66;45060.50;5089840;28;20436;-58
2023/10/26 01:08:34;;;;;;;1.00;0.67;;;;;;;-143.84;49.68;45037.66;5089149;28;20456;-58
2023/10/26 01:11:03;;;;;;;1.00;0.70;;;;;;;-143.84;49.47;45041.44;5090062;28;20975;-60
2023/10/26 01:13:33;;;;;;;1.30;0.80;;;;;;;-143.84;50.19;45026.22;5088763;28;20782;-60
2023/10/26 01:16:02;;;;;;;0.90;0.80;;;;;;;-143.84;50.66;45030.03;5088505;28;20519;-59
2023/10/26 01:18:29;;;;;;;0.90;0.60;;;;;;;-143.84;49.93;45039.53;5088604;28;20839;-59
2023/10/26 01:20:56;;;;;;;1.97;1.13;;;;;;;-143.84;49.26;45060.50;5088689;28;20971;-59
2023/10/26 01:23:24;;;;;;;1.70;1.60;;;;;;;-143.84;51.26;45024.31;5088464;28;20436;-59
2023/10/26 01:25:55;;;;;;;1.60;1.50;;;;;;;-143.84;59.73;45066.22;5088697;28;20521;-59
2023/10/26 01:28:23;;;;;;;1.50;1.33;;;;;;;-143.84;64.88;45062.41;5088693;28;20436;-59
2023/10/26 01:30:50;;;;;;;3.90;1.63;;;;;;;-143.84;64.85;45050.97;5088533;28;20454;-59
2023/10/26 01:33:17;;;;;;;1.30;1.20;;;;;;;-143.84;64.06;45047.16;5088276;28;20949;-59
2023/10/26 01:35:45;;;;;;;2.07;1.87;;;;;;;-143.84;63.77;45083.34;5088306;28;20440;-59
2023/10/26 01:38:12;;;;;;;1.30;0.90;;;;;;;-143.84;63.86;45050.97;5088305;28;20479;-59
2023/10/26 01:40:41;;;;;;;3.20;2.10;;;;;;;-143.84;64.69;45058.59;5088163;28;20438;-59
2023/10/26 01:43:08;;;;;;;1.93;1.67;;;;;;;-143.84;64.30;45054.78;5088474;28;21157;-57
2023/10/26 01:45:35;;;;;;;3.20;2.23;;;;;;;-143.84;63.94;45066.22;5088243;28;21014;-60
2023/10/26 01:48:03;;;;;;;3.63;2.17;;;;;;;-143.84;64.20;45068.13;5088099;28;20439;-60
2023/10/26 01:50:32;;;;;;;2.60;1.93;;;;;;;-143.84;64.56;45077.63;5088045;28;20436;-60
2023/10/26 01:52:59;;;;;;;1.73;1.63;;;;;;;-143.84;64.33;45062.41;5087549;28;20443;-60
2023/10/26 01:55:26;;;;;;;2.83;2.30;;;;;;;-143.84;64.33;45050.97;5087604;28;20501;-60
2023/10/26 01:57:55;;;;;;;1.90;1.67;;;;;;;-143.84;63.57;45081.44;5087706;28;20435;-60
2023/10/26 02:00:22;;;;;;;1.83;1.73;;;;;;;-143.84;62.69;45049.06;5087346;28;20435;-60
2023/10/26 02:02:49;;;;;;;2.47;1.50;;;;;;;-143.84;62.54;45066.22;5087703;28;20458;-60
2023/10/26 02:05:17;;;;;;;1.67;1.57;;;;;;;-143.84;62.48;45064.31;5087901;28;20448;-60
2023/10/26 02:07:44;;;;;;;2.50;1.80;;;;;;;-143.84;62.21;45064.31;5088070;28;20482;-60
2023/10/26 02:10:15;;;;;;;3.20;2.20;;;;;;;-143.84;61.83;45052.88;5087899;28;20436;-60
2023/10/26 02:12:42;;;;;;;2.07;1.70;;;;;;;-143.84;61.67;45047.16;5087977;28;20440;-60
2023/10/26 02:15:12;;;;;;;3.13;1.70;;;;;;;-143.84;61.83;45081.44;5087974;28;20501;-60
2023/10/26 02:17:39;;;;;;;3.30;1.50;;;;;;;-143.84;61.61;45037.66;5088006;28;20436;-60
2023/10/26 02:20:07;;;;;;;2.03;1.87;;;;;;;-143.84;61.34;45039.53;5090020;28;20992;-60
2023/10/26 02:22:34;;;;;;;4.33;1.83;;;;;;;-143.84;61.06;45052.88;5091638;28;20432;-60
2023/10/26 02:25:01;;;;;;;2.10;2.00;;;;;;;-143.84;60.90;45075.72;5091672;28;20440;-60
2023/10/26 02:27:29;;;;;;;3.87;2.07;;;;;;;-143.84;60.72;45079.53;5091559;28;21022;-60
2023/10/26 02:29:56;;;;;;;1.50;1.40;;;;;;;-143.84;60.52;45077.63;5091727;28;20500;-60
2023/10/26 02:32:25;;;;;;;2.03;1.37;;;;;;;-143.84;61.46;45092.88;5091595;28;20458;-60
2023/10/26 02:34:52;;;;;;;2.17;1.97;;;;;;;-143.84;62.51;45052.88;5091329;28;20487;-60
2023/10/26 02:37:20;;;;;;;2.83;2.57;;;;;;;-143.84;62.77;45083.34;5091377;28;20462;-60
2023/10/26 02:39:47;;;;;;;1.73;1.07;;;;;;;-143.84;63.06;45075.72;5091351;28;21007;-60
2023/10/26 02:42:14;;;;;;;2.93;2.17;;;;;;;-143.84;64.69;45062.41;5091434;28;20455;-60
2023/10/26 02:44:41;;;;;;;1.97;1.87;;;;;;;-143.84;67.81;45079.53;5091164;28;20444;-60
2023/10/26 02:47:08;;;;;;;3.53;3.10;;;;;;;-143.84;69.50;45071.91;5091141;28;20957;-60
2023/10/26 02:49:37;;;;;;;3.40;2.60;;;;;;;-143.84;71.37;45068.13;5091311;28;20443;-60
2023/10/26 02:52:04;;;;;;;2.37;2.17;;;;;;;-143.84;72.02;45060.50;5091186;28;20439;-60
2023/10/26 02:54:32;;;;;;;2.83;1.70;;;;;;;-143.84;72.52;45081.44;5091097;28;20519;-60
2023/10/26 02:56:59;;;;;;;5.47;3.10;;;;;;;-143.84;72.77;45079.53;5091049;28;20433;-60
2023/10/26 02:59:26;;;;;;;2.10;2.00;;;;;;;-143.84;72.86;45083.34;5090863;28;20490;-60
2023/10/26 03:01:53;;;;;;;2.50;2.30;;;;;;;-143.84;74.24;45079.53;5090939;28;20436;-60
2023/10/26 03:04:20;;;;;;;3.23;2.93;;;;;;;-143.84;74.77;45077.63;5090944;28;20436;-60
2023/10/26 03:06:48;;;;;;;3.50;2.30;;;;;;;-143.84;75.94;45077.63;5090697;28;20440;-60
2023/10/26 03:09:16;;;;;;;4.13;3.70;;;;;;;-143.84;76.39;45071.91;5090786;28;20501;-60
2023/10/26 03:11:44;;;;;;;3.90;3.13;;;;;;;-143.84;76.76;45068.13;5090620;28;20444;-60
2023/10/26 03:14:11;;;;;;;2.90;2.60;;;;;;;-143.84;76.87;45062.41;5090573;28;20501;-60
2023/10/26 03:16:38;;;;;;;3.60;3.27;;;;;;;-143.84;77.26;45066.22;5090765;28;20508;-60
2023/10/26 03:19:05;;;;;;;2.13;1.90;;;;;;;-143.84;77.75;45075.72;5090650;28;20482;-60
2023/10/26 03:21:32;;;;;;;2.30;2.10;;;;;;;-143.84;77.53;45064.31;5090457;28;20440;-60
2023/10/26 03:24:01;;;;;;;2.83;2.63;;;;;;;-143.84;77.40;45073.81;5090468;28;20497;-60
2023/10/26 03:26:28;;;;;;;2.80;2.60;;;;;;;-143.84;77.30;45083.34;5090371;28;20439;-60
2023/10/26 03:28:55;;;;;;;2.90;2.03;;;;;;;-143.84;77.43;45056.69;5068759;28;20456;-60
2023/10/26 03:31:22;;;;;;;2.03;1.90;;;;;;;-143.84;77.35;45087.16;5069040;28;20440;-60
2023/10/26 03:33:50;;;;;;;2.20;2.10;;;;;;;-143.84;77.23;45073.81;5069619;28;20492;-60
2023/10/26 03:36:18;;;;;;;3.00;2.70;;;;;;;-143.84;77.39;45056.69;5069987;28;20495;-60
2023/10/26 03:38:46;;;;;;;6.00;1.90;;;;;;;-143.84;77.78;45062.41;5069926;28;20902;-60
2023/10/26 03:41:15;;;;;;;3.63;3.37;;;;;;;-143.84;77.32;45089.06;5069320;28;20514;-60
2023/10/26 03:43:43;;;;;;;2.83;2.63;;;;;;;-143.84;77.47;45060.50;5074130;28;20454;-60
2023/10/26 03:46:10;;;;;;;2.10;1.90;;;;;;;-143.84;77.17;45064.31;5089674;28;20432;-60
2023/10/26 03:48:37;;;;;;;3.30;2.40;;;;;;;-143.84;77.26;45047.16;5089698;28;20424;-60
2023/10/26 03:51:05;;;;;;;5.87;2.67;;;;;;;-143.84;77.43;45083.34;5089661;28;20451;-60
2023/10/26 03:53:32;;;;;;;2.67;2.47;;;;;;;-143.84;77.49;45092.88;5089357;28;20987;-60
2023/10/26 03:56:01;;;;;;;3.30;2.50;;;;;;;-143.84;77.24;45056.69;5089637;28;20501;-60
2023/10/26 03:58:29;;;;;;;2.67;2.40;;;;;;;-143.84;77.20;45052.88;5089538;28;20497;-60
2023/10/26 04:00:57;;;;;;;2.87;1.93;;;;;;;-143.84;76.86;45083.34;5086789;28;20493;-60
2023/10/26 04:03:25;;;;;;;1.90;1.80;;;;;;;-143.84;76.38;45083.34;5089522;28;20436;-60
2023/10/26 04:05:52;;;;;;;2.13;1.93;;;;;;;-143.84;76.04;45077.63;5089231;28;20978;-60
2023/10/26 04:08:19;;;;;;;3.57;2.10;;;;;;;-143.84;75.80;45090.97;5089479;28;20436;-60
2023/10/26 04:10:46;;;;;;;2.80;2.60;;;;;;;-143.84;75.11;45085.25;5089647;28;20436;-60
2023/10/26 04:13:13;;;;;;;1.77;1.67;;;;;;;-143.84;75.23;45047.16;5089328;28;20447;-60
2023/10/26 04:15:42;;;;;;;2.07;1.70;;;;;;;-143.84;75.05;45102.38;5089652;28;21175;-60
2023/10/26 04:18:09;;;;;;;1.97;1.87;;;;;;;-143.84;75.29;45096.66;5089575;28;21022;-60
2023/10/26 04:20:36;;;;;;;3.40;3.10;;;;;;;-143.84;75.46;45085.25;5089306;28;20529;-60
2023/10/26 04:23:03;;;;;;;4.90;2.77;;;;;;;-143.84;75.66;45079.53;5089568;28;20444;-60
2023/10/26 04:25:30;;;;;;;2.23;2.13;;;;;;;-143.84;75.81;45089.06;5089472;28;20965;-59
2023/10/26 04:27:57;;;;;;;2.60;1.70;;;;;;;-143.84;76.01;45083.34;5089373;28;20493;-59
2023/10/26 04:30:25;;;;;;;1.53;1.33;;;;;;;-143.84;76.06;45085.25;5089384;28;20473;-60
2023/10/26 04:32:53;;;;;;;3.53;2.40;;;;;;;-143.84;76.52;45081.44;5089158;28;20431;-60
2023/10/26 04:35:20;;;;;;;2.50;2.30;;;;;;;-143.84;76.81;45071.91;5088409;28;20475;-60
2023/10/26 04:37:47;;;;;;;3.97;2.50;;;;;;;-143.84;76.99;45094.78;5089032;28;20440;-60
2023/10/26 04:40:14;;;;;;;2.13;1.80;;;;;;;-143.84;77.41;45090.97;5088865;28;20604;-60
2023/10/26 04:42:42;;;;;;;3.37;3.07;;;;;;;-143.84;77.71;45062.41;5088921;28;20427;-60
2023/10/26 04:45:10;;;;;;;3.20;2.33;;;;;;;-143.84;77.63;45070.00;5089270;28;20439;-60
2023/10/26 04:47:37;;;;;;;3.00;2.40;;;;;;;-143.84;77.44;45111.91;5089386;28;20504;-57
2023/10/26 04:50:08;;;;;;;3.93;2.80;;;;;;;-143.84;77.44;45083.34;5088940;28;20494;-57
2023/10/26 04:52:35;;;;;;;6.33;3.27;;;;;;;-143.84;77.51;45083.34;5089106;28;20440;-57
2023/10/26 04:55:02;;;;;;;3.90;3.50;;;;;;;-143.84;77.74;45094.78;5089328;28;20475;-57
2023/10/26 04:57:29;;;;;;;7.17;4.07;;;;;;;-143.84;77.88;45100.47;5090420;28;20494;-57
2023/10/26 04:59:56;;;;;;;2.20;2.00;;;;;;;-143.84;78.07;45100.47;5090090;28;20474;-57
2023/10/26 05:02:23;;;;;;;2.47;2.27;;;;;;;-143.84;77.88;45060.50;5090248;28;20433;-57
2023/10/26 05:04:50;;;;;;;4.73;3.17;;;;;;;-143.84;78.03;45066.22;5090142;28;20998;-57
2023/10/26 05:07:18;;;;;;;13.73;3.23;;;;;;;-143.84;78.14;45098.56;5090184;28;20436;-57
2023/10/26 05:09:46;;;;;;;3.10;2.63;;;;;;;-143.84;78.48;45079.53;5090475;28;20432;-57
2023/10/26 05:12:13;;;;;;;1.97;1.10;;;;;;;-143.84;78.56;45092.88;5090163;28;20440;-57
2023/10/26 05:14:40;;;;;;;1.83;1.73;;;;;;;-143.84;78.63;45056.69;5090185;28;20444;-57
2023/10/26 05:17:07;;;;;;;5.83;2.10;;;;;;;-143.84;78.63;45066.22;5090113;28;20551;-57
2023/10/26 05:19:34;;;;;;;2.50;2.30;;;;;;;-143.84;78.94;45079.53;5089803;28;20471;-57
2023/10/26 05:22:01;;;;;;;3.13;2.83;;;;;;;-143.84;79.25;45075.72;5089968;28;20443;-57
2023/10/26 05:24:30;;;;;;;3.67;2.43;;;;;;;-143.84;79.33;45071.91;5089871;28;20451;-57
2023/10/26 05:26:57;;;;;;;4.10;2.10;;;;;;;-143.84;79.66;45079.53;5089906;28;21022;-57
2023/10/26 05:29:24;;;;;;;5.07;3.30;;;;;;;-143.84;79.74;45070.00;5089950;28;20505;-57
2023/10/26 05:31:51;;;;;;;2.67;2.00;;;;;;;-143.84;79.51;45070.00;5089898;28;20428;-57
2023/10/26 05:34:18;;;;;;;6.80;2.37;;;;;;;-143.84;79.42;45073.81;5089681;28;20570;-57
2023/10/26 05:36:45;;;;;;;3.03;2.63;;;;;;;-143.84;79.34;45087.16;5090068;28;20485;-57
2023/10/26 05:39:12;;;;;;;3.83;2.23;;;;;;;-143.84;79.32;45089.06;5089740;28;20505;-57
2023/10/26 05:41:41;;;;;;;2.97;1.90;;;;;;;-143.84;79.19;45092.88;5089869;28;20432;-57
2023/10/26 05:44:08;;;;;;;2.30;1.90;;;;;;;-143.84;78.53;45075.72;5089517;28;20509;-57
2023/10/26 05:46:35;;;;;;;2.53;2.00;;;;;;;-143.84;78.48;45104.28;5089386;28;20436;-57
2023/10/26 05:49:02;;;;;;;1.27;1.17;;;;;;;-143.84;78.42;45083.34;5090060;28;20443;-57
2023/10/26 05:51:29;;;;;;;1.83;1.57;;;;;;;-143.84;78.03;45064.31;5089570;28;20941;-57
2023/10/26 05:53:56;;;;;;;2.83;2.57;;;;;;;-143.84;76.82;45043.34;5089585;28;20452;-57
2023/10/26 05:56:24;;;;;;;2.37;1.40;;;;;;;-143.84;75.75;45050.97;5093611;28;20427;-57
2023/10/26 05:58:52;;;;;;;1.97;1.77;;;;;;;-143.84;75.40;45083.34;5093469;28;20500;-57
2023/10/26 06:01:20;;;;;;;2.43;2.33;;;;;;;-143.84;74.71;45062.41;5093746;28;20822;-57
2023/10/26 06:03:47;;;;;;;2.90;1.80;;;;;;;-143.84;73.84;45062.41;5093741;28;20474;-57
2023/10/26 06:06:14;;;;;;;2.10;1.57;;;;;;;-143.84;72.65;45070.00;5093231;28;20447;-57
2023/10/26 06:08:41;;;;;;;2.23;1.57;;;;;;;-143.84;71.17;45050.97;5093507;28;20451;-57
2023/10/26 06:11:08;;;;;;;1.70;1.50;;;;;;;-143.84;70.13;45068.13;5093371;28;20439;-57
2023/10/26 06:13:35;;;;;;;4.20;2.50;;;;;;;-143.84;68.10;45068.13;5093799;28;20810;-57
2023/10/26 06:16:04;;;;;;;2.47;1.73;;;;;;;-143.84;67.27;45070.00;5093134;28;20491;-57
2023/10/26 06:18:32;;;;;;;2.00;1.90;;;;;;;-143.84;66.04;45045.25;5093556;28;20493;-57
2023/10/26 06:21:00;;;;;;;3.33;1.73;;;;;;;-143.84;65.89;45070.00;5092728;28;20895;-57
2023/10/26 06:23:28;;;;;;;2.20;2.00;;;;;;;-143.84;63.12;45071.91;5092011;28;20501;-58
2023/10/26 06:25:59;;;;;;;2.33;2.13;;;;;;;-143.84;62.80;45039.53;5092929;28;20435;-57
2023/10/26 06:28:26;;;;;;;1.83;1.30;;;;;;;-143.84;61.27;45031.94;5092657;28;20444;-58
2023/10/26 06:30:54;;;;;;;2.13;1.60;;;;;;;-143.84;59.36;45047.16;5091575;28;20443;-58
2023/10/26 06:33:24;;;;;;;3.80;2.47;;;;;;;-143.84;59.14;45045.25;5092618;28;20459;-58
2023/10/26 06:35:51;;;;;;;1.80;1.70;;;;;;;-143.84;57.92;45049.06;5092954;28;20444;-58
2023/10/26 06:38:18;;;;;;;2.33;2.13;;;;;;;-143.84;57.74;45012.88;5091981;28;20432;-58
2023/10/26 06:40:47;;;;;;;3.20;2.83;;;;;;;-143.84;57.97;45045.25;5092701;28;20475;-57
2023/10/26 06:43:14;;;;;;;2.50;1.90;;;;;;;-143.84;58.10;45039.53;5092435;28;20435;-58
2023/10/26 06:45:41;;;;;;;1.60;1.50;;;;;;;-143.84;57.99;45056.69;5092749;28;21036;-58
2023/10/26 06:48:08;;;;;;;1.60;1.50;;;;;;;-143.84;57.64;45039.53;5092827;28;20448;-58
2023/10/26 06:50:36;;;;;;;1.87;1.43;;;;;;;-143.84;56.97;45052.88;5093109;28;20443;-58
2023/10/26 06:53:03;;;;;;;2.90;2.10;;;;;;;-143.84;56.18;45033.84;5093128;28;20432;-57
2023/10/26 06:55:33;;;;;;;1.60;1.40;;;;;;;-143.84;56.30;45037.66;5092741;28;20447;-57
2023/10/26 06:58:00;;;;;;;1.77;1.23;;;;;;;-143.84;55.86;45030.03;5092667;28;20944;-57
2023/10/26 07:00:27;;;;;;;2.30;2.10;;;;;;;-143.84;55.65;45043.34;5092533;28;20483;-57
2023/10/26 07:02:55;;;;;;;3.27;2.40;;;;;;;-143.84;55.28;45062.41;5092596;28;20519;-58
2023/10/26 07:05:22;;;;;;;2.20;1.97;;;;;;;-143.84;54.83;45024.31;5092705;28;20436;-58
2023/10/26 07:07:50;;;;;;;1.80;1.70;;;;;;;-143.84;54.69;45026.22;5092291;28;20501;-58
2023/10/26 07:10:19;;;;;;;2.03;1.67;;;;;;;-143.84;55.29;45018.59;5092548;28;20843;-58
2023/10/26 07:12:47;;;;;;;3.33;2.17;;;;;;;-143.84;54.36;45024.31;5092636;28;20451;-58
2023/10/26 07:15:14;;;;;;;1.43;1.23;;;;;;;-143.84;56.31;45033.84;5092432;28;20440;-58
2023/10/26 07:17:41;;;;;;;2.53;1.90;;;;;;;-143.84;54.86;45014.78;5092559;28;20448;-58
2023/10/26 07:20:09;;;;;;;4.37;2.40;;;;;;;-143.84;53.58;45010.97;5092159;28;20525;-57
2023/10/26 07:22:36;;;;;;;1.77;1.67;;;;;;;-143.84;52.87;45010.97;5092305;28;20509;-57
2023/10/26 07:25:06;;;;;;;6.37;3.57;;;;;;;-143.84;53.86;45022.41;5092324;28;21132;-57
2023/10/26 07:27:33;;;;;;;17.30;2.37;;;;;;;-143.84;52.07;45033.84;5092267;28;20432;-57
2023/10/26 07:30:01;;;;;;;3.33;1.20;;;;;;;-143.84;52.60;45022.41;5092197;28;20509;-57
2023/10/26 07:32:28;;;;;;;2.17;1.93;;;;;;;-143.84;50.94;45026.22;5092053;28;20513;-57
2023/10/26 07:34:55;;;;;;;1.47;1.37;;;;;;;-143.84;51.73;45020.50;5091831;28;20472;-58
2023/10/26 07:37:22;;;;;;;2.20;2.00;;;;;;;-143.84;52.36;44984.31;5092001;28;20432;-57
2023/10/26 07:39:49;;;;;;;3.30;1.50;;;;;;;-143.84;52.72;45030.03;5091611;28;20988;-57
2023/10/26 07:42:18;;;;;;;2.50;1.73;;;;;;;-143.84;52.96;45007.19;5093473;28;20440;-57
2023/10/26 07:44:46;;;;;;;2.30;1.13;;;;;;;-143.84;52.85;45020.50;5091247;28;20498;-57
2023/10/26 07:47:13;;;;;;;1.20;0.80;;;;;;;-143.84;53.00;45012.88;5091717;28;20428;-57
2023/10/26 07:49:40;;;;;;;2.17;1.53;;;;;;;-143.84;52.96;45005.28;5096317;28;20443;-57
2023/10/26 07:52:07;;;;;;;6.43;2.13;;;;;;;-143.84;53.15;45037.66;5091767;28;20844;-58
2023/10/26 07:54:34;;;;;;;1.23;1.10;;;;;;;-143.84;53.06;45007.19;5091837;28;20540;-57
2023/10/26 07:57:01;;;;;;;1.60;1.50;;;;;;;-143.84;53.08;45037.66;5090460;28;20432;-57
2023/10/26 07:59:30;;;;;;;1.40;1.30;;;;;;;-143.84;51.77;45033.84;5090708;28;20443;-57
2023/10/26 08:01:57;;;;;;;1.60;1.40;;;;;;;-143.84;51.93;45010.97;5090618;28;20475;-57
2023/10/26 08:04:24;;;;;;;2.37;1.80;;;;;;;-143.84;52.59;45041.44;5091498;28;20439;-57
2023/10/26 08:06:52;;;;;;;2.63;1.60;;;;;;;-143.84;53.21;45033.84;5091353;28;20431;-57
2023/10/26 08:09:19;;;;;;;2.57;2.37;;;;;;;-143.84;50.94;45005.28;5091616;28;21163;-57
2023/10/26 08:11:46;;;;;;;1.43;1.33;;;;;;;-143.84;50.02;45010.97;5091560;28;20448;-57
2023/10/26 08:14:14;;;;;;;1.97;1.20;;;;;;;-143.84;48.20;44991.94;5091432;28;20440;-57
2023/10/26 08:16:42;;;;;;;1.53;1.07;;;;;;;-143.84;47.10;45003.38;5091292;28;20469;-57
2023/10/26 08:19:09;;;;;;;1.90;1.50;;;;;;;-143.84;47.70;45003.38;5091720;28;20432;-57
2023/10/26 08:21:36;;;;;;;3.47;1.67;;;;;;;-143.84;47.01;45018.59;5090671;28;20490;-57
2023/10/26 08:24:04;;;;;;;1.20;0.90;;;;;;;-143.84;45.93;44993.84;5087042;28;20467;-57
2023/10/26 08:26:31;;;;;;;1.10;0.90;;;;;;;-143.84;46.19;45016.69;5088470;28;20424;-57
2023/10/26 08:28:58;;;;;;;1.40;1.20;;;;;;;-143.84;45.64;45014.78;5089108;28;21010;-57
2023/10/26 08:31:25;;;;;;;1.83;1.63;;;;;;;-143.84;46.70;45020.50;5089255;28;20497;-57
2023/10/26 08:33:54;;;;;;;1.90;1.80;;;;;;;-143.84;46.72;44995.75;5089011;28;20480;-57
2023/10/26 08:36:21;;;;;;;2.60;2.03;;;;;;;-143.84;48.21;44971.00;5089263;28;20497;-57
2023/10/26 08:38:48;;;;;;;2.13;1.97;;;;;;;-143.84;47.15;44978.63;5089789;28;20768;-57
2023/10/26 08:41:15;;;;;;;2.97;1.60;;;;;;;-143.84;47.01;44990.03;5088781;28;20475;-57
2023/10/26 08:43:44;;;;;;;1.77;1.20;;;;;;;-143.84;47.03;45003.38;5086451;28;20502;-57
2023/10/26 08:46:12;;;;;;;2.93;1.40;;;;;;;-143.84;44.33;44999.56;5089310;28;20482;-57
2023/10/26 08:48:41;;;;;;;1.50;1.40;;;;;;;-143.84;44.21;44957.66;5089195;28;20428;-57
2023/10/26 08:51:10;;;;;;;3.67;1.67;;;;;;;-143.84;42.89;44957.66;5089377;28;20436;-57
2023/10/26 08:53:37;;;;;;;1.10;0.93;;;;;;;-143.84;41.91;44961.47;5089043;28;20482;-57
2023/10/26 08:56:05;;;;;;;1.33;1.10;;;;;;;-143.84;41.19;44965.28;5088913;28;20436;-57
2023/10/26 08:58:32;;;;;;;1.30;1.20;;;;;;;-143.84;41.17;44978.63;5089165;28;20481;-57
2023/10/26 09:01:01;;;;;;;2.00;1.50;;;;;;;-143.84;41.79;44988.13;5089123;28;20529;-57
2023/10/26 09:03:28;;;;;;;2.17;1.80;;;;;;;-143.84;44.51;44974.81;5089156;28;20432;-57
2023/10/26 09:05:56;;;;;;;2.13;1.93;;;;;;;-143.84;46.19;45018.59;5088933;28;20497;-57
2023/10/26 09:08:27;;;;;;;4.33;2.80;;;;;;;-143.84;46.97;44988.13;5089038;28;20451;-57
2023/10/26 09:10:54;;;;;;;2.10;1.83;;;;;;;-143.84;48.57;45007.19;5088634;28;20452;-57
2023/10/26 09:13:26;;;;;;;4.70;3.13;;;;;;;-143.84;50.46;44995.75;5089100;28;20861;-57
2023/10/26 09:15:57;;;;;;;4.63;3.03;;;;;;;-143.84;51.48;44982.41;5095236;28;20450;-57
2023/10/26 09:18:25;;;;;;;3.83;2.77;;;;;;;-143.84;50.19;45024.31;5093853;28;20626;-57
2023/10/26 09:21:04;;;;;;;2.73;2.53;;;;;;;-143.84;49.83;45028.13;5088273;28;20919;-57
2023/10/26 09:23:33;;;;;;;4.90;2.53;;;;;;;-143.84;50.53;45018.59;5088498;28;20448;-57
2023/10/26 09:26:03;;;;;;;3.20;2.80;;;;;;;-143.84;51.19;45024.31;5087980;28;20448;-57
2023/10/26 09:28:30;;;;;;;5.30;2.40;;;;;;;-143.84;51.78;45022.41;5088775;28;21380;-57
2023/10/26 09:30:59;;;;;;;2.97;1.97;;;;;;;-143.84;49.85;45005.28;5092635;28;20501;-57
2023/10/26 09:33:28;;;;;;;2.17;2.07;;;;;;;-143.84;49.96;45018.59;5106266;28;20450;-57
2023/10/26 09:35:55;;;;;;;1.67;1.57;;;;;;;-143.84;49.11;45003.38;5113544;28;20781;-57
2023/10/26 09:38:36;;;;;;;2.53;2.33;;;;;;;-143.84;50.84;45009.09;5113459;28;20466;-57
2023/10/26 09:41:07;;;;;;;2.40;2.20;;;;;;;-143.84;48.60;44995.75;5112676;28;20490;-57
2023/10/26 09:43:34;;;;;;;1.60;1.50;;;;;;;-143.84;48.25;45014.78;5113233;28;20801;-57
2023/10/26 09:46:02;;;;;;;2.13;1.93;;;;;;;-143.84;47.52;44993.84;5113195;28;20439;-57
2023/10/26 09:48:29;;;;;;;2.10;1.93;;;;;;;-143.84;46.70;44995.75;5113109;27;20446;-57
2023/10/26 09:51:00;;;;;;;2.63;2.30;;;;;;;-143.84;46.27;44995.75;5101866;28;20428;-57
2023/10/26 09:53:32;;;;;;;2.40;2.20;;;;;;;-143.84;46.76;44986.22;5092608;28;20439;-57
2023/10/26 09:56:03;;;;;;;1.73;1.60;;;;;;;-143.84;45.89;44997.66;5091787;28;20423;-57
2023/10/26 09:58:35;;;;;;;2.37;2.10;;;;;;;-143.84;46.38;45010.97;5092711;28;20483;-57
2023/10/26 10:01:22;;;;;;;2.13;2.03;;;;;;;-143.84;46.01;45003.38;5092484;28;20475;-57
2023/10/26 10:03:50;;;;;;;1.80;1.33;;;;;;;-143.84;45.99;45009.09;5092378;28;20446;-57
2023/10/26 10:06:44;;;;;;;4.10;2.30;;;;;;;-143.84;46.14;45005.28;5092292;28;20463;-57
2023/10/26 10:09:11;;;;;;;4.80;2.17;;;;;;;-143.84;47.15;44986.22;5092235;28;20493;-57
2023/10/26 10:11:40;;;;;;;1.87;1.53;;;;;;;-143.84;46.63;45014.78;5091671;28;20438;-57
2023/10/26 10:14:08;;;;;;;1.87;1.73;;;;;;;-143.84;47.07;45022.41;5092179;28;20436;-57
2023/10/26 10:16:51;;;;;;;2.13;1.93;;;;;;;-143.84;47.19;44999.56;5092351;28;20478;-57
2023/10/26 10:19:20;;;;;;;2.33;2.00;;;;;;;-143.84;47.19;45020.50;5092262;28;20440;-57
2023/10/26 10:21:48;;;;;;;2.43;2.07;;;;;;;-143.84;47.82;45026.22;5092039;28;20548;-57
2023/10/26 10:24:48;;;;;;;3.10;2.37;;;;;;;-143.84;47.07;45018.59;5092067;28;20464;-57
2023/10/26 10:27:18;;;;;;;1.53;1.33;;;;;;;-143.84;45.95;45001.47;5092497;28;20493;-57
2023/10/26 10:29:45;;;;;;;2.10;1.73;;;;;;;-143.84;46.01;44995.75;5091870;28;20440;-57
2023/10/26 10:32:13;;;;;;;1.17;1.00;;;;;;;-143.84;45.32;45010.97;5091937;28;20493;-57
2023/10/26 10:34:44;;;;;;;1.90;1.77;;;;;;;-143.84;43.83;45028.13;5091580;28;20600;-57
2023/10/26 10:37:13;;;;;;;4.57;1.33;;;;;;;-143.84;42.63;44972.91;5091725;28;20432;-57
2023/10/26 10:40:08;;;;;;;1.20;0.90;;;;;;;-143.84;43.24;44988.13;5090959;28;20886;-57
2023/10/26 10:42:37;;;;;;;1.57;1.10;;;;;;;-143.84;40.83;44976.72;5091639;28;20515;-57
2023/10/26 10:45:05;;;;;;;1.13;1.03;;;;;;;-143.84;42.91;44969.09;5091485;28;20452;-57
2023/10/26 10:47:32;;;;;;;1.70;1.60;;;;;;;-143.84;41.62;44967.19;5091811;28;20435;-57
2023/10/26 10:50:16;;;;;;;3.20;1.90;;;;;;;-143.84;40.71;44961.47;5091356;28;20428;-57
2023/10/26 10:52:43;;;;;;;1.70;1.40;;;;;;;-143.84;41.94;44990.03;5091536;28;20431;-57
2023/10/26 10:55:10;;;;;;;1.90;1.70;;;;;;;-143.84;41.37;44995.75;5090305;28;20436;-57
2023/10/26 10:57:57;;;;;;;1.47;1.37;;;;;;;-143.84;41.34;44980.53;5090228;28;20462;-57
2023/10/26 11:00:25;;;;;;;2.07;1.90;;;;;;;-143.84;42.12;44967.19;5091405;28;20436;-57
2023/10/26 11:02:56;;;;;;;2.80;1.80;;;;;;;-143.84;42.69;44997.66;5091469;28;20479;-57
2023/10/26 11:05:35;;;;;;;2.23;1.43;;;;;;;-143.84;42.92;44980.53;5091275;28;20523;-57
2023/10/26 11:08:03;;;;;;;2.30;1.47;;;;;;;-143.84;42.82;44988.13;5091338;28;20440;-57
2023/10/26 11:10:30;;;;;;;1.47;1.37;;;;;;;-143.84;42.73;44972.91;5090617;28;20562;-57
2023/10/26 11:12:59;;;;;;;1.80;1.70;;;;;;;-143.84;43.73;44999.56;5091114;28;20892;-57
2023/10/26 11:15:32;;;;;;;1.60;1.50;;;;;;;-143.84;43.36;44980.53;5090932;28;20500;-57
2023/10/26 11:18:00;;;;;;;3.67;1.90;;;;;;;-143.84;43.91;45020.50;5091019;28;20439;-57
2023/10/26 11:20:38;;;;;;;1.70;1.20;;;;;;;-143.84;43.47;44963.38;5090772;28;20499;-57
2023/10/26 11:23:05;;;;;;;1.13;1.03;;;;;;;-143.84;44.14;44986.22;5090901;28;20854;-57